Worthington, Iowa
Current Conditions -  °F | °C
As of 8:55 AM on Monday 24 Nov 2014 (Local Time) from KMXO Reporting Station
Light Snow Light Snow  
Wind Chill: 14°   Ceiling: 1100
Heat Index: 28°   Visibility: 1.2mi
Dew Point: 27°   Wind: 24mph
Humidity: 93%   Direction: 290°WNW
Pressure: 29.33"   Gusts: 35mph
Location:  42.4°N, 91.12°W
Report Text: KMXO 241455Z AUTO 29021G30KT 1 1/4SM -SN BKN011 BKN017 M02/M03 A2933 RMK AO2
Loading
Personal Weather Stations






























Interactive Weather Map New forecast layout! Learn more

10-Day Weather Forecast

Advertisements
Track Severe Weather on mobile